Time;durP1;ratioP1;P1;durP2;ratioP2;P2;SDS_P1;SDS_P2;PMS_P1;PMS_P2;Temp;Humidity;BMP_temperature;BMP_pressure;BME280_temperature;BME280_humidity;BME280_pressure;Samples;Min_cycle;Max_cycle;Signal;HPM_P1;HPM_P2
2022/07/24 00:01:04;;;;;;;;;;;30.20;89.30;;;;;;5023344;28;20193;-54
2022/07/24 00:03:31;;;;;;;;;;;30.20;89.30;;;;;;5024255;28;19949;-59
2022/07/24 00:05:57;;;;;;;;;;;30.10;89.50;;;;;;5024849;28;19916;-56
2022/07/24 00:08:24;;;;;;;;;;;30.10;89.60;;;;;;5024431;28;20123;-53
2022/07/24 00:10:50;;;;;;;;;;;30.10;89.70;;;;;;5024141;28;19909;-53
2022/07/24 00:13:16;;;;;;;;;;;30.10;89.70;;;;;;5023766;28;19956;-53
2022/07/24 00:15:42;;;;;;;;;;;30.10;89.80;;;;;;5023935;28;20209;-54
2022/07/24 00:18:08;;;;;;;;;;;30.10;89.80;;;;;;5024091;28;19910;-52
2022/07/24 00:20:34;;;;;;;;;;;30.00;90.00;;;;;;5023803;28;20197;-54
2022/07/24 00:23:00;;;;;;;;;;;30.00;90.30;;;;;;5024409;28;20097;-58
2022/07/24 00:25:26;;;;;;;;;;;30.00;90.10;;;;;;5024050;28;19971;-52
2022/07/24 00:27:53;;;;;;;;;;;30.00;90.10;;;;;;5024141;28;19916;-50
2022/07/24 00:30:19;;;;;;;;;;;30.00;90.10;;;;;;5024719;28;19976;-50
2022/07/24 00:32:45;;;;;;;;;;;30.00;90.00;;;;;;5024281;28;19952;-55
2022/07/24 00:35:13;;;;;;;;;;;30.00;90.10;;;;;;5023508;28;19910;-52
2022/07/24 00:37:39;;;;;;;;;;;30.00;90.00;;;;;;5023441;28;19910;-51
2022/07/24 00:40:05;;;;;;;;;;;29.90;90.00;;;;;;5023378;28;19951;-52
2022/07/24 00:42:31;;;;;;;;;;;29.90;90.00;;;;;;5023463;28;19946;-57
2022/07/24 00:44:57;;;;;;;;;;;29.90;90.00;;;;;;5023761;28;20069;-54
2022/07/24 00:47:24;;;;;;;;;;;29.90;90.10;;;;;;5023342;28;19937;-52
2022/07/24 00:49:50;;;;;;;;;;;29.90;90.00;;;;;;5023242;28;20189;-52
2022/07/24 00:52:19;;;;;;;;;;;29.90;90.00;;;;;;5023376;28;20199;-56
2022/07/24 00:55:05;;;;;;;;;;;29.90;90.00;;;;;;5022492;28;19910;-52
2022/07/24 00:57:31;;;;;;;;;;;29.90;90.00;;;;;;5023652;28;19985;-51
2022/07/24 01:00:06;;;;;;;;;;;29.90;90.00;;;;;;5023350;28;19941;-53
2022/07/24 01:02:33;;;;;;;;;;;29.90;90.10;;;;;;5021713;28;20205;-51
2022/07/24 01:05:00;;;;;;;;;;;29.90;90.20;;;;;;5023453;28;19910;-50
2022/07/24 01:07:26;;;;;;;;;;;29.80;90.30;;;;;;5022786;28;20067;-52
2022/07/24 01:09:52;;;;;;;;;;;29.60;90.90;;;;;;5022929;28;19941;-54
2022/07/24 01:12:19;;;;;;;;;;;29.40;90.90;;;;;;5023055;28;19917;-54
2022/07/24 01:14:45;;;;;;;;;;;29.30;91.10;;;;;;5023048;28;19906;-52
2022/07/24 01:17:11;;;;;;;;;;;29.20;91.20;;;;;;5022737;28;19989;-53
2022/07/24 01:19:38;;;;;;;;;;;29.20;91.20;;;;;;5022809;28;19913;-53
2022/07/24 01:22:04;;;;;;;;;;;29.20;91.20;;;;;;5022945;28;19905;-51
2022/07/24 01:24:30;;;;;;;;;;;29.30;91.10;;;;;;5022596;28;19913;-52
2022/07/24 01:26:56;;;;;;;;;;;29.30;91.00;;;;;;5022691;28;19966;-50
2022/07/24 01:29:23;;;;;;;;;;;29.30;91.10;;;;;;5022733;28;19996;-52
2022/07/24 01:31:49;;;;;;;;;;;29.30;91.00;;;;;;5022892;28;20093;-50
2022/07/24 01:34:15;;;;;;;;;;;29.30;91.00;;;;;;5022598;28;19913;-53
2022/07/24 01:36:41;;;;;;;;;;;29.30;91.00;;;;;;5022651;28;19963;-57
2022/07/24 01:39:07;;;;;;;;;;;29.30;90.90;;;;;;5023152;28;19914;-52
2022/07/24 01:41:33;;;;;;;;;;;29.30;90.90;;;;;;5022362;28;19928;-58
2022/07/24 01:44:00;;;;;;;;;;;29.30;90.80;;;;;;5023045;28;20148;-55
2022/07/24 01:46:26;;;;;;;;;;;29.30;90.90;;;;;;5022574;28;19905;-56
2022/07/24 01:48:52;;;;;;;;;;;29.20;90.90;;;;;;5022777;28;19913;-53
2022/07/24 01:51:18;;;;;;;;;;;29.20;90.90;;;;;;5022521;28;20216;-51
2022/07/24 01:53:44;;;;;;;;;;;29.30;91.00;;;;;;5022576;28;19925;-50
2022/07/24 01:56:10;;;;;;;;;;;29.30;90.90;;;;;;5022215;28;19937;-52
2022/07/24 01:58:39;;;;;;;;;;;29.30;90.90;;;;;;5022480;28;20150;-54
2022/07/24 02:01:06;;;;;;;;;;;29.20;90.90;;;;;;5022418;28;19910;-60
2022/07/24 02:03:32;;;;;;;;;;;29.20;90.90;;;;;;5022161;28;20216;-61
2022/07/24 02:05:58;;;;;;;;;;;29.20;90.90;;;;;;5022267;28;19972;-54
2022/07/24 02:08:25;;;;;;;;;;;29.20;90.90;;;;;;5022524;28;19976;-56
2022/07/24 02:10:51;;;;;;;;;;;29.10;90.90;;;;;;5022118;28;19912;-55
2022/07/24 02:13:17;;;;;;;;;;;29.10;90.90;;;;;;5022253;28;19917;-54
2022/07/24 02:15:44;;;;;;;;;;;29.10;91.00;;;;;;5022908;28;19963;-56
2022/07/24 02:18:10;;;;;;;;;;;29.10;91.00;;;;;;5020606;28;19921;-57
2022/07/24 02:20:36;;;;;;;;;;;29.10;91.00;;;;;;5022059;28;19941;-54
2022/07/24 02:23:02;;;;;;;;;;;29.10;90.90;;;;;;5022269;28;19914;-55
2022/07/24 02:25:30;;;;;;;;;;;29.00;90.90;;;;;;5022386;28;19906;-54
2022/07/24 02:27:56;;;;;;;;;;;29.00;91.00;;;;;;5022641;28;19947;-53
2022/07/24 02:30:24;;;;;;;;;;;29.00;91.10;;;;;;5022114;28;19929;-54
2022/07/24 02:32:50;;;;;;;;;;;29.00;91.00;;;;;;5022232;28;20117;-58
2022/07/24 02:35:16;;;;;;;;;;;29.00;91.00;;;;;;5021793;28;19905;-56
2022/07/24 02:37:43;;;;;;;;;;;29.00;91.00;;;;;;5021968;28;19913;-53
2022/07/24 02:40:11;;;;;;;;;;;28.90;90.90;;;;;;5022117;28;19969;-57
2022/07/24 02:42:37;;;;;;;;;;;28.90;90.90;;;;;;5021629;28;19955;-56
2022/07/24 02:45:04;;;;;;;;;;;28.90;90.90;;;;;;5022380;28;19905;-53
2022/07/24 02:47:31;;;;;;;;;;;28.90;90.80;;;;;;5021894;28;19996;-56
2022/07/24 02:49:57;;;;;;;;;;;28.90;90.80;;;;;;5021388;28;19906;-53
2022/07/24 02:52:23;;;;;;;;;;;28.90;90.80;;;;;;5021613;28;19917;-53
2022/07/24 02:54:49;;;;;;;;;;;28.90;90.70;;;;;;5021566;28;20215;-58
2022/07/24 02:57:15;;;;;;;;;;;28.90;90.70;;;;;;5021378;28;19918;-54
2022/07/24 02:59:41;;;;;;;;;;;28.90;90.70;;;;;;5021365;28;19905;-54
2022/07/24 03:02:07;;;;;;;;;;;28.90;90.70;;;;;;5021089;28;19941;-54
2022/07/24 03:04:34;;;;;;;;;;;28.90;90.70;;;;;;5021416;28;20181;-54
2022/07/24 03:07:00;;;;;;;;;;;28.90;90.70;;;;;;5021321;28;19968;-53
2022/07/24 03:09:26;;;;;;;;;;;28.90;90.70;;;;;;5021095;28;19946;-52
2022/07/24 03:11:52;;;;;;;;;;;28.90;90.80;;;;;;5020942;28;19906;-53
2022/07/24 03:14:18;;;;;;;;;;;28.80;90.70;;;;;;5021141;28;20000;-52
2022/07/24 03:16:44;;;;;;;;;;;28.80;90.70;;;;;;5021576;28;19905;-53
2022/07/24 03:19:10;;;;;;;;;;;28.80;90.60;;;;;;5021752;28;19917;-50
2022/07/24 03:21:37;;;;;;;;;;;28.80;90.70;;;;;;5021009;28;19906;-51
2022/07/24 03:24:03;;;;;;;;;;;28.80;90.70;;;;;;5021556;28;19946;-49
2022/07/24 03:26:29;;;;;;;;;;;28.80;90.70;;;;;;5021611;28;20003;-51
2022/07/24 03:28:56;;;;;;;;;;;28.70;90.70;;;;;;5022003;28;20201;-52
2022/07/24 03:31:22;;;;;;;;;;;28.70;90.60;;;;;;5024596;28;19906;-56
2022/07/24 03:33:48;;;;;;;;;;;28.70;90.60;;;;;;5023617;28;19924;-49
2022/07/24 03:36:14;;;;;;;;;;;28.70;90.60;;;;;;5024747;28;19937;-49
2022/07/24 03:38:40;;;;;;;;;;;28.70;90.70;;;;;;5024948;28;19921;-50
2022/07/24 03:41:07;;;;;;;;;;;28.70;90.70;;;;;;5024607;28;20189;-51
2022/07/24 03:43:33;;;;;;;;;;;28.60;90.60;;;;;;5024805;28;19917;-49
2022/07/24 03:45:59;;;;;;;;;;;28.70;90.60;;;;;;5024453;28;19905;-50
2022/07/24 03:48:25;;;;;;;;;;;28.60;90.60;;;;;;5024656;28;20127;-56
2022/07/24 03:50:51;;;;;;;;;;;28.60;90.70;;;;;;5024363;28;19906;-54
2022/07/24 03:53:17;;;;;;;;;;;28.60;90.60;;;;;;5024654;28;19929;-51
2022/07/24 03:55:43;;;;;;;;;;;28.60;90.60;;;;;;5024429;28;19910;-51
2022/07/24 03:58:10;;;;;;;;;;;28.60;90.50;;;;;;5024654;28;19917;-57
2022/07/24 04:00:36;;;;;;;;;;;28.60;90.50;;;;;;5023191;28;19920;-51
2022/07/24 04:03:02;;;;;;;;;;;28.50;90.50;;;;;;5024323;28;20220;-51
2022/07/24 04:05:28;;;;;;;;;;;28.50;90.50;;;;;;5024377;28;19905;-57
2022/07/24 04:07:54;;;;;;;;;;;28.60;90.50;;;;;;5022868;28;19914;-53
2022/07/24 04:10:20;;;;;;;;;;;28.50;90.50;;;;;;5024082;28;19944;-52
2022/07/24 04:12:49;;;;;;;;;;;28.50;90.60;;;;;;5024190;28;20117;-54
2022/07/24 04:15:16;;;;;;;;;;;28.50;90.60;;;;;;5023938;28;19937;-53
2022/07/24 04:17:43;;;;;;;;;;;28.50;90.60;;;;;;5024105;28;20127;-53
2022/07/24 04:20:09;;;;;;;;;;;28.40;90.60;;;;;;5023841;28;20106;-52
2022/07/24 04:22:36;;;;;;;;;;;28.40;90.60;;;;;;5023851;28;20182;-51
2022/07/24 04:25:03;;;;;;;;;;;28.40;90.60;;;;;;5023678;28;19929;-53
2022/07/24 04:27:29;;;;;;;;;;;28.40;90.50;;;;;;5024073;28;20067;-52
2022/07/24 04:29:55;;;;;;;;;;;28.40;90.60;;;;;;5023727;28;19986;-52
2022/07/24 04:32:21;;;;;;;;;;;28.50;90.70;;;;;;5023495;28;19918;-55
2022/07/24 04:34:47;;;;;;;;;;;28.40;90.70;;;;;;5023719;28;19933;-52
2022/07/24 04:37:13;;;;;;;;;;;28.40;90.60;;;;;;5023464;28;19920;-53
2022/07/24 04:39:39;;;;;;;;;;;28.40;90.60;;;;;;5023414;28;20237;-57
2022/07/24 04:42:05;;;;;;;;;;;28.30;90.70;;;;;;5022903;28;19964;-52
2022/07/24 04:44:32;;;;;;;;;;;28.40;90.90;;;;;;5023422;28;19910;-51
2022/07/24 04:46:58;;;;;;;;;;;28.30;90.90;;;;;;5023555;28;20007;-52
2022/07/24 04:49:24;;;;;;;;;;;28.30;90.90;;;;;;5023501;28;20228;-53
2022/07/24 04:51:50;;;;;;;;;;;28.30;90.90;;;;;;5023124;28;19947;-60
2022/07/24 04:54:16;;;;;;;;;;;28.30;91.00;;;;;;5023586;28;19913;-53
2022/07/24 04:56:42;;;;;;;;;;;28.20;91.00;;;;;;5023236;28;19928;-52
2022/07/24 04:59:08;;;;;;;;;;;28.20;91.00;;;;;;5023599;28;19922;-55
2022/07/24 05:01:35;;;;;;;;;;;28.20;91.00;;;;;;5023003;28;19912;-54
2022/07/24 05:04:01;;;;;;;;;;;28.20;90.90;;;;;;5022938;28;19952;-56
2022/07/24 05:06:27;;;;;;;;;;;28.20;90.80;;;;;;5023092;28;19989;-53
2022/07/24 05:08:53;;;;;;;;;;;28.20;90.80;;;;;;5023295;28;19920;-54
2022/07/24 05:11:19;;;;;;;;;;;28.20;90.80;;;;;;5022945;28;19955;-55
2022/07/24 05:13:46;;;;;;;;;;;28.20;90.70;;;;;;5023065;28;20005;-57
2022/07/24 05:16:12;;;;;;;;;;;28.20;90.70;;;;;;5022840;28;20098;-53
2022/07/24 05:18:38;;;;;;;;;;;28.20;90.60;;;;;;5023391;28;19916;-53
2022/07/24 05:21:04;;;;;;;;;;;28.10;90.60;;;;;;5022912;28;19942;-52
2022/07/24 05:23:30;;;;;;;;;;;28.10;90.60;;;;;;5023102;28;19910;-57
2022/07/24 05:25:56;;;;;;;;;;;28.10;90.40;;;;;;5022949;28;19916;-54
2022/07/24 05:28:22;;;;;;;;;;;28.10;90.40;;;;;;5023283;28;19989;-52
2022/07/24 05:30:48;;;;;;;;;;;28.10;90.30;;;;;;5022692;28;19936;-52
2022/07/24 05:33:14;;;;;;;;;;;28.10;90.30;;;;;;5022628;28;19952;-53
2022/07/24 05:35:41;;;;;;;;;;;28.10;90.20;;;;;;5022748;28;20083;-54
2022/07/24 05:38:07;;;;;;;;;;;28.10;90.10;;;;;;5023028;28;20186;-53
2022/07/24 05:40:33;;;;;;;;;;;28.00;90.10;;;;;;5022584;28;20214;-53
2022/07/24 05:42:59;;;;;;;;;;;28.10;89.90;;;;;;5022876;28;19910;-53
2022/07/24 05:45:25;;;;;;;;;;;28.10;89.90;;;;;;5022718;28;19914;-53
2022/07/24 05:47:51;;;;;;;;;;;28.10;89.40;;;;;;5022653;28;20230;-53
2022/07/24 05:50:17;;;;;;;;;;;28.00;89.20;;;;;;5022518;28;19937;-57
2022/07/24 05:52:43;;;;;;;;;;;28.00;88.90;;;;;;5021646;28;19920;-53
2022/07/24 05:55:09;;;;;;;;;;;28.00;88.90;;;;;;5022201;28;19977;-53
2022/07/24 05:57:36;;;;;;;;;;;28.00;88.60;;;;;;5022708;28;20010;-50
2022/07/24 06:00:03;;;;;;;;;;;28.00;88.60;;;;;;5022344;28;19976;-52
2022/07/24 06:02:29;;;;;;;;;;;28.00;88.10;;;;;;5022064;28;19928;-51
2022/07/24 06:04:55;;;;;;;;;;;28.00;88.00;;;;;;5022390;28;20185;-50
2022/07/24 06:07:21;;;;;;;;;;;27.90;87.90;;;;;;5022477;28;20079;-52
2022/07/24 06:09:47;;;;;;;;;;;27.90;87.60;;;;;;5022184;28;19909;-55
2022/07/24 06:12:13;;;;;;;;;;;27.90;87.40;;;;;;5022155;28;19918;-60
2022/07/24 06:14:39;;;;;;;;;;;27.90;87.10;;;;;;5022321;28;19906;-54
2022/07/24 06:17:05;;;;;;;;;;;27.90;86.80;;;;;;5022251;28;20190;-57
2022/07/24 06:19:32;;;;;;;;;;;27.90;86.60;;;;;;5022110;28;19956;-55
2022/07/24 06:21:58;;;;;;;;;;;27.90;86.70;;;;;;5022059;28;19906;-54
2022/07/24 06:24:24;;;;;;;;;;;27.90;86.70;;;;;;5021988;28;20143;-58
2022/07/24 06:26:50;;;;;;;;;;;27.80;86.70;;;;;;5021802;28;19906;-52
2022/07/24 06:29:16;;;;;;;;;;;27.80;86.50;;;;;;5022114;28;19910;-54
2022/07/24 06:31:42;;;;;;;;;;;27.80;86.40;;;;;;5021944;28;19977;-58
2022/07/24 06:34:08;;;;;;;;;;;27.80;86.60;;;;;;5021661;28;19914;-53
2022/07/24 06:36:34;;;;;;;;;;;27.80;86.00;;;;;;5022003;28;19948;-51
2022/07/24 06:39:00;;;;;;;;;;;27.80;86.20;;;;;;5022300;28;20066;-51
2022/07/24 06:41:27;;;;;;;;;;;27.80;86.40;;;;;;5021657;28;19985;-52
2022/07/24 06:43:53;;;;;;;;;;;27.80;86.90;;;;;;5022098;28;19947;-52
2022/07/24 06:46:19;;;;;;;;;;;27.80;86.60;;;;;;5021734;28;19980;-52
2022/07/24 06:48:45;;;;;;;;;;;27.80;86.30;;;;;;5021945;28;19952;-59
2022/07/24 06:51:12;;;;;;;;;;;27.80;86.60;;;;;;5021713;28;19937;-55
2022/07/24 06:53:40;;;;;;;;;;;27.70;86.80;;;;;;5021992;28;19914;-55
2022/07/24 06:56:07;;;;;;;;;;;27.70;87.40;;;;;;5021458;28;19909;-52
2022/07/24 06:58:33;;;;;;;;;;;27.70;87.50;;;;;;5021927;28;19917;-60
2022/07/24 07:00:59;;;;;;;;;;;27.70;87.80;;;;;;5021548;28;19909;-57
2022/07/24 07:03:25;;;;;;;;;;;27.70;87.90;;;;;;5021287;28;19921;-54
2022/07/24 07:05:51;;;;;;;;;;;27.70;87.90;;;;;;5021189;28;19913;-52
2022/07/24 07:08:17;;;;;;;;;;;27.70;88.10;;;;;;5021671;28;19920;-52
2022/07/24 07:10:43;;;;;;;;;;;27.70;88.20;;;;;;5021490;28;19905;-54
2022/07/24 07:13:09;;;;;;;;;;;27.60;88.50;;;;;;5021453;28;19924;-54
2022/07/24 07:15:36;;;;;;;;;;;27.60;88.40;;;;;;5021473;28;20197;-53
2022/07/24 07:18:02;;;;;;;;;;;27.60;88.30;;;;;;5021468;28;20153;-58
2022/07/24 07:20:28;;;;;;;;;;;27.50;88.50;;;;;;5021187;28;19969;-57
2022/07/24 07:22:54;;;;;;;;;;;27.60;88.40;;;;;;5021503;28;19921;-60
2022/07/24 07:25:20;;;;;;;;;;;27.50;88.40;;;;;;5021286;28;19927;-49
2022/07/24 07:27:46;;;;;;;;;;;27.60;88.20;;;;;;5021296;28;19917;-49
2022/07/24 07:30:13;;;;;;;;;;;27.50;87.90;;;;;;5021203;28;19906;-49
2022/07/24 07:32:39;;;;;;;;;;;27.50;87.70;;;;;;5021309;28;19917;-49
2022/07/24 07:35:06;;;;;;;;;;;27.50;87.50;;;;;;5021057;28;20220;-49
2022/07/24 07:37:32;;;;;;;;;;;27.60;87.30;;;;;;5021296;28;19976;-50
2022/07/24 07:39:58;;;;;;;;;;;27.50;87.10;;;;;;5021037;28;20193;-51
2022/07/24 07:42:25;;;;;;;;;;;27.50;87.40;;;;;;5021074;28;19914;-51
2022/07/24 07:44:51;;;;;;;;;;;27.50;87.30;;;;;;5021095;28;19910;-51
2022/07/24 07:47:17;;;;;;;;;;;27.50;87.30;;;;;;5021053;28;19914;-50
2022/07/24 07:49:43;;;;;;;;;;;27.50;87.30;;;;;;5020891;28;19909;-50
2022/07/24 07:52:09;;;;;;;;;;;27.60;87.50;;;;;;5020801;28;19913;-52
2022/07/24 07:54:35;;;;;;;;;;;27.60;88.00;;;;;;5021002;28;19905;-52
2022/07/24 07:57:01;;;;;;;;;;;27.60;88.20;;;;;;5020876;28;19905;-52
2022/07/24 07:59:27;;;;;;;;;;;27.50;88.40;;;;;;5020744;28;19913;-51
2022/07/24 08:01:53;;;;;;;;;;;27.50;88.60;;;;;;5021052;28;20198;-51
2022/07/24 08:04:20;;;;;;;;;;;27.50;88.70;;;;;;5020670;28;19918;-52
2022/07/24 08:06:46;;;;;;;;;;;27.50;89.20;;;;;;5020663;28;19905;-52
2022/07/24 08:09:12;;;;;;;;;;;27.50;89.50;;;;;;5021226;28;20220;-54
2022/07/24 08:11:38;;;;;;;;;;;27.50;89.60;;;;;;5020706;28;19905;-52
2022/07/24 08:14:04;;;;;;;;;;;27.50;89.80;;;;;;5020406;28;19923;-52
2022/07/24 08:16:30;;;;;;;;;;;27.40;89.80;;;;;;5021696;28;19905;-52
2022/07/24 08:18:56;;;;;;;;;;;27.40;89.80;;;;;;5024456;28;19921;-52
2022/07/24 08:21:22;;;;;;;;;;;27.50;90.20;;;;;;5023867;28;20220;-51
2022/07/24 08:23:49;;;;;;;;;;;27.40;90.20;;;;;;5024323;28;19949;-51
2022/07/24 08:26:15;;;;;;;;;;;27.40;90.20;;;;;;5023794;28;19906;-51
2022/07/24 08:28:41;;;;;;;;;;;27.40;90.20;;;;;;5023633;28;19914;-48
2022/07/24 08:31:07;;;;;;;;;;;27.40;90.20;;;;;;5023678;28;19920;-51
2022/07/24 08:33:33;;;;;;;;;;;27.30;90.50;;;;;;5024159;28;19917;-53
2022/07/24 08:35:59;;;;;;;;;;;27.30;90.30;;;;;;5023721;28;19968;-52
2022/07/24 08:38:25;;;;;;;;;;;27.30;90.20;;;;;;5023966;28;19941;-57
2022/07/24 08:40:51;;;;;;;;;;;27.30;90.30;;;;;;5023700;28;20101;-52
2022/07/24 08:43:17;;;;;;;;;;;27.30;90.20;;;;;;5023942;28;19941;-52
2022/07/24 08:45:44;;;;;;;;;;;27.30;90.20;;;;;;5023536;28;19905;-49
2022/07/24 08:48:10;;;;;;;;;;;27.30;90.10;;;;;;5023813;28;19962;-52
2022/07/24 08:50:39;;;;;;;;;;;27.30;90.10;;;;;;5023605;28;19906;-52
2022/07/24 08:53:05;;;;;;;;;;;27.30;90.10;;;;;;5023413;28;19963;-52
2022/07/24 08:55:32;;;;;;;;;;;27.20;90.30;;;;;;5023417;28;19905;-51
2022/07/24 08:58:01;;;;;;;;;;;27.20;90.40;;;;;;5023598;28;20070;-47
2022/07/24 09:00:28;;;;;;;;;;;27.20;90.40;;;;;;5020296;28;20033;-51
2022/07/24 09:02:54;;;;;;;;;;;27.20;90.40;;;;;;5023079;28;19921;-53
2022/07/24 09:05:20;;;;;;;;;;;27.30;90.50;;;;;;5023290;28;19910;-53
2022/07/24 09:07:47;;;;;;;;;;;27.20;90.50;;;;;;5021753;28;19913;-56
2022/07/24 09:10:14;;;;;;;;;;;27.20;90.40;;;;;;5005486;28;19917;-56
2022/07/24 09:12:42;;;;;;;;;;;27.30;90.60;;;;;;5023442;28;20189;-54
2022/07/24 09:15:16;;;;;;;;;;;27.20;90.50;;;;;;5019179;28;19916;-51
2022/07/24 09:17:55;;;;;;;;;;;27.20;90.50;;;;;;5017866;28;19980;-53
2022/07/24 09:20:23;;;;;;;;;;;27.30;90.40;;;;;;5022322;28;20101;-57
2022/07/24 09:22:49;;;;;;;;;;;27.30;90.30;;;;;;5023256;28;19913;-59
2022/07/24 09:25:16;;;;;;;;;;;27.30;90.30;;;;;;5023339;28;19906;-52
2022/07/24 09:27:52;;;;;;;;;;;27.30;90.30;;;;;;5022955;28;19913;-55
2022/07/24 09:30:21;;;;;;;;;;;27.20;90.30;;;;;;5022927;28;19972;-54
2022/07/24 09:33:01;;;;;;;;;;;27.30;90.10;;;;;;5023122;28;20194;-53
2022/07/24 09:35:30;;;;;;;;;;;27.20;90.00;;;;;;5022869;28;19937;-49
2022/07/24 09:37:58;;;;;;;;;;;27.30;89.60;;;;;;5023021;28;19913;-50
2022/07/24 09:40:35;;;;;;;;;;;27.30;89.50;;;;;;5022665;28;19905;-49
2022/07/24 09:43:19;;;;;;;;;;;27.30;89.20;;;;;;5022941;28;20124;-52
2022/07/24 09:45:51;;;;;;;;;;;27.20;89.20;;;;;;5022591;28;20194;-53
2022/07/24 09:48:18;;;;;;;;;;;27.20;89.00;;;;;;5022965;28;19949;-53
2022/07/24 09:51:00;;;;;;;;;;;27.20;88.70;;;;;;5022795;28;19906;-52
2022/07/24 09:53:30;;;;;;;;;;;27.20;88.40;;;;;;5024433;28;19961;-49
2022/07/24 09:55:57;;;;;;;;;;;27.20;88.10;;;;;;5022596;28;19905;-53
2022/07/24 09:58:24;;;;;;;;;;;27.20;87.90;;;;;;5022735;28;20245;-49
2022/07/24 10:00:51;;;;;;;;;;;27.20;87.90;;;;;;5022768;28;19928;-53
2022/07/24 10:03:18;;;;;;;;;;;27.20;87.60;;;;;;5012179;28;20210;-50
2022/07/24 10:05:46;;;;;;;;;;;27.20;87.50;;;;;;5022251;28;19937;-52
2022/07/24 10:08:13;;;;;;;;;;;27.20;87.40;;;;;;5022674;28;19914;-48
2022/07/24 10:10:41;;;;;;;;;;;27.20;87.10;;;;;;5022577;28;19905;-51
2022/07/24 10:13:08;;;;;;;;;;;27.20;86.70;;;;;;5022892;28;20202;-49
2022/07/24 10:15:40;;;;;;;;;;;27.20;86.60;;;;;;5022454;28;19906;-51
2022/07/24 10:18:07;;;;;;;;;;;27.10;86.30;;;;;;5022476;28;20223;-54
2022/07/24 10:20:39;;;;;;;;;;;27.10;86.40;;;;;;5022430;28;19920;-57
2022/07/24 10:23:06;;;;;;;;;;;27.20;86.00;;;;;;5022374;28;20180;-49
2022/07/24 10:25:42;;;;;;;;;;;27.10;86.00;;;;;;5022049;28;20189;-51
2022/07/24 10:28:13;;;;;;;;;;;27.10;86.10;;;;;;5019871;28;19914;-51
2022/07/24 10:30:39;;;;;;;;;;;27.10;86.40;;;;;;5021171;28;19906;-51
2022/07/24 10:33:06;;;;;;;;;;;27.10;86.60;;;;;;5022038;28;19953;-54
2022/07/24 10:35:33;;;;;;;;;;;27.00;86.70;;;;;;5022018;28;19913;-55
2022/07/24 10:38:00;;;;;;;;;;;27.00;87.10;;;;;;5022161;28;19984;-52
2022/07/24 10:40:44;;;;;;;;;;;27.00;87.50;;;;;;5021141;28;19906;-50
2022/07/24 10:43:11;;;;;;;;;;;27.00;87.50;;;;;;5022160;28;19917;-49
2022/07/24 10:45:45;;;;;;;;;;;27.00;87.60;;;;;;5021760;28;19905;-52
2022/07/24 10:48:20;;;;;;;;;;;27.00;87.60;;;;;;5022019;28;19913;-51
2022/07/24 10:51:15;;;;;;;;;;;27.00;87.50;;;;;;5021624;28;19927;-53
2022/07/24 10:53:49;;;;;;;;;;;27.00;87.40;;;;;;5023332;28;20093;-54
2022/07/24 10:56:22;;;;;;;;;;;27.00;87.60;;;;;;5021476;28;19928;-55
2022/07/24 10:58:51;;;;;;;;;;;27.00;87.70;;;;;;5021493;28;19913;-51
2022/07/24 11:01:30;;;;;;;;;;;27.00;87.40;;;;;;5021534;28;20243;-59
2022/07/24 11:03:58;;;;;;;;;;;27.00;87.20;;;;;;5021500;28;19959;-49
2022/07/24 11:06:40;;;;;;;;;;;27.00;87.30;;;;;;5021555;28;19912;-51
2022/07/24 11:09:07;;;;;;;;;;;27.00;87.10;;;;;;5022012;28;20186;-56
2022/07/24 11:11:33;;;;;;;;;;;27.00;87.10;;;;;;5021643;28;20216;-51
2022/07/24 11:14:01;;;;;;;;;;;27.00;86.80;;;;;;5021676;28;19913;-55
2022/07/24 11:16:33;;;;;;;;;;;27.00;86.50;;;;;;5021600;28;19910;-56
2022/07/24 11:19:00;;;;;;;;;;;27.10;86.10;;;;;;5021777;28;19980;-57
2022/07/24 11:21:36;;;;;;;;;;;27.10;85.70;;;;;;5021182;28;19917;-51
2022/07/24 11:24:19;;;;;;;;;;;27.10;85.80;;;;;;5021725;28;19909;-51
2022/07/24 11:26:49;;;;;;;;;;;27.10;85.50;;;;;;5021217;28;19910;-50
2022/07/24 11:29:16;;;;;;;;;;;27.10;84.80;;;;;;5021303;28;19918;-49
2022/07/24 11:31:46;;;;;;;;;;;27.20;84.60;;;;;;5020801;28;19906;-55
2022/07/24 11:34:13;;;;;;;;;;;27.20;84.80;;;;;;5021593;28;19963;-52
2022/07/24 11:36:47;;;;;;;;;;;27.20;85.20;;;;;;5021220;28;19905;-54
2022/07/24 11:39:18;;;;;;;;;;;27.20;84.80;;;;;;5021544;28;19958;-56
2022/07/24 11:41:45;;;;;;;;;;;27.20;84.90;;;;;;5021081;28;19905;-57
2022/07/24 11:44:12;;;;;;;;;;;27.30;85.20;;;;;;5021583;28;19913;-58
2022/07/24 11:46:39;;;;;;;;;;;27.20;85.00;;;;;;5019976;28;19909;-51
2022/07/24 11:49:06;;;;;;;;;;;27.20;85.10;;;;;;5003549;28;20064;-51
2022/07/24 11:51:41;;;;;;;;;;;27.20;85.30;;;;;;5015373;28;19906;-51
2022/07/24 11:54:07;;;;;;;;;;;27.20;85.50;;;;;;5024702;28;20101;-51
2022/07/24 11:56:33;;;;;;;;;;;27.30;85.90;;;;;;5024593;28;19947;-50
2022/07/24 11:58:59;;;;;;;;;;;27.30;85.80;;;;;;5024908;28;19914;-49
2022/07/24 12:01:25;;;;;;;;;;;27.30;85.80;;;;;;5024227;28;19905;-50
2022/07/24 12:03:52;;;;;;;;;;;27.30;85.80;;;;;;5024435;28;19944;-52
2022/07/24 12:06:19;;;;;;;;;;;27.30;86.20;;;;;;5024826;28;19905;-56
2022/07/24 12:08:45;;;;;;;;;;;27.30;86.40;;;;;;5024682;28;19914;-52
2022/07/24 12:11:11;;;;;;;;;;;27.40;86.20;;;;;;5024537;28;19940;-55
2022/07/24 12:13:41;;;;;;;;;;;27.40;86.00;;;;;;5024553;28;19918;-60
2022/07/24 12:16:08;;;;;;;;;;;27.40;85.30;;;;;;5024005;28;20193;-53
2022/07/24 12:18:34;;;;;;;;;;;27.50;85.30;;;;;;5024570;28;19937;-57
2022/07/24 12:21:01;;;;;;;;;;;27.50;85.50;;;;;;5023384;28;20154;-50
2022/07/24 12:23:30;;;;;;;;;;;27.60;85.40;;;;;;5024316;28;19914;-44
2022/07/24 12:25:56;;;;;;;;;;;27.60;85.10;;;;;;5024085;28;20215;-46
2022/07/24 12:28:23;;;;;;;;;;;27.70;85.50;;;;;;5024243;28;19936;-46
2022/07/24 12:30:50;;;;;;;;;;;27.70;85.60;;;;;;5022537;28;19976;-51
2022/07/24 12:33:17;;;;;;;;;;;27.70;85.40;;;;;;5024239;28;19926;-51
2022/07/24 12:35:56;;;;;;;;;;;27.80;85.50;;;;;;5023830;28;20197;-48
2022/07/24 12:38:42;;;;;;;;;;;27.80;85.30;;;;;;5023995;28;19920;-50
2022/07/24 12:41:08;;;;;;;;;;;27.80;85.50;;;;;;5023807;28;19976;-50
2022/07/24 12:43:54;;;;;;;;;;;27.80;85.70;;;;;;5022865;28;19919;-54
2022/07/24 12:46:37;;;;;;;;;;;27.80;85.70;;;;;;5023632;28;19909;-52
2022/07/24 12:49:07;;;;;;;;;;;27.80;85.60;;;;;;5024180;28;19910;-51
2022/07/24 12:51:52;;;;;;;;;;;27.90;85.80;;;;;;5023863;28;19910;-55
2022/07/24 12:54:22;;;;;;;;;;;27.90;85.90;;;;;;5023565;28;19917;-52
2022/07/24 12:56:50;;;;;;;;;;;27.90;85.80;;;;;;5022493;28;19905;-57
2022/07/24 12:59:27;;;;;;;;;;;28.00;86.00;;;;;;5023423;28;19937;-55
2022/07/24 13:01:55;;;;;;;;;;;28.00;86.00;;;;;;5023046;28;19905;-52
2022/07/24 13:04:23;;;;;;;;;;;28.00;86.00;;;;;;5023697;28;20113;-50
2022/07/24 13:06:50;;;;;;;;;;;28.10;86.00;;;;;;5023565;28;19912;-50
2022/07/24 13:09:17;;;;;;;;;;;28.10;85.80;;;;;;5023678;28;19913;-54
2022/07/24 13:11:50;;;;;;;;;;;28.10;86.00;;;;;;5023499;28;20190;-51
2022/07/24 13:14:17;;;;;;;;;;;28.20;86.20;;;;;;5012262;28;19979;-53
2022/07/24 13:16:44;;;;;;;;;;;28.20;86.40;;;;;;5010070;28;19952;-53
2022/07/24 13:19:11;;;;;;;;;;;28.20;86.50;;;;;;5004059;28;19945;-49
2022/07/24 13:21:37;;;;;;;;;;;28.30;86.80;;;;;;5003520;28;19910;-50
2022/07/24 13:24:04;;;;;;;;;;;28.30;86.90;;;;;;5010677;28;19913;-51
2022/07/24 13:26:31;;;;;;;;;;;28.30;87.10;;;;;;5012149;28;20150;-55
2022/07/24 13:28:57;;;;;;;;;;;28.40;87.00;;;;;;5014958;28;19927;-51
2022/07/24 13:31:24;;;;;;;;;;;28.40;87.20;;;;;;5013112;28;19955;-54
2022/07/24 13:33:50;;;;;;;;;;;28.40;87.10;;;;;;5010342;28;19926;-50
2022/07/24 13:36:17;;;;;;;;;;;28.50;87.20;;;;;;5013675;28;20235;-51
2022/07/24 13:38:43;;;;;;;;;;;28.50;87.20;;;;;;5015821;28;20097;-50
2022/07/24 13:41:10;;;;;;;;;;;28.50;87.20;;;;;;5022023;28;19905;-50
2022/07/24 13:43:36;;;;;;;;;;;28.50;87.20;;;;;;5013566;28;20147;-51
2022/07/24 13:46:02;;;;;;;;;;;28.50;87.00;;;;;;5007168;28;19906;-52
2022/07/24 13:48:29;;;;;;;;;;;28.50;87.20;;;;;;5019053;28;19920;-51
2022/07/24 13:50:55;;;;;;;;;;;28.50;87.10;;;;;;5011131;28;19918;-54
2022/07/24 13:53:21;;;;;;;;;;;28.50;87.30;;;;;;5015258;28;19918;-51
2022/07/24 13:55:47;;;;;;;;;;;28.50;87.40;;;;;;5002949;28;19928;-50
2022/07/24 13:58:13;;;;;;;;;;;28.50;87.40;;;;;;5002178;28;19920;-49
2022/07/24 14:00:40;;;;;;;;;;;28.60;87.60;;;;;;5013539;28;19909;-53
2022/07/24 14:03:06;;;;;;;;;;;28.60;87.70;;;;;;5020150;28;19929;-52
2022/07/24 14:05:32;;;;;;;;;;;28.60;88.00;;;;;;5013480;28;20206;-53
2022/07/24 14:07:58;;;;;;;;;;;28.60;88.20;;;;;;5022604;28;20018;-54
2022/07/24 14:10:25;;;;;;;;;;;28.70;88.10;;;;;;5019457;28;20034;-51
2022/07/24 14:12:51;;;;;;;;;;;28.70;88.10;;;;;;5013214;28;20224;-52
2022/07/24 14:15:17;;;;;;;;;;;28.70;88.10;;;;;;5007812;28;20087;-53
2022/07/24 14:17:43;;;;;;;;;;;28.70;88.10;;;;;;5002942;28;19914;-52